createdAt,value
2023-03-03T00:01:10.541Z,1.60
2023-03-03T00:03:39.125Z,1.60
2023-03-03T00:06:11.337Z,1.60
2023-03-03T00:08:40.227Z,1.50
2023-03-03T00:11:08.952Z,1.50
2023-03-03T00:13:45.884Z,1.50
2023-03-03T00:16:17.364Z,1.40
2023-03-03T00:18:48.466Z,1.40
2023-03-03T00:21:29.149Z,1.40
2023-03-03T00:24:15.894Z,1.40
2023-03-03T00:26:47.116Z,1.40
2023-03-03T00:29:36.692Z,1.40
2023-03-03T00:32:23.871Z,1.50
2023-03-03T00:34:53.717Z,1.60
2023-03-03T00:37:31.354Z,1.60
2023-03-03T00:40:23.889Z,1.60
2023-03-03T00:42:54.331Z,1.70
2023-03-03T00:45:32.066Z,1.70
2023-03-03T00:48:02.624Z,1.70
2023-03-03T00:50:34.377Z,1.80
2023-03-03T00:53:08.391Z,1.80
2023-03-03T00:55:37.041Z,1.80
2023-03-03T00:58:05.814Z,1.80
2023-03-03T01:00:41.792Z,1.80
2023-03-03T01:03:15.996Z,1.80
2023-03-03T01:05:45.411Z,1.80
2023-03-03T01:08:14.790Z,1.80
2023-03-03T01:10:46.679Z,1.80
2023-03-03T01:13:15.198Z,1.80
2023-03-03T01:15:45.498Z,1.80
2023-03-03T01:18:15.995Z,1.90
2023-03-03T01:20:44.612Z,1.80
2023-03-03T01:23:13.678Z,1.80
2023-03-03T01:25:42.421Z,1.90
2023-03-03T01:28:11.194Z,1.90
2023-03-03T01:30:39.849Z,1.80
2023-03-03T01:33:09.697Z,1.90
2023-03-03T01:35:40.889Z,1.90
2023-03-03T01:38:09.489Z,1.90
2023-03-03T01:40:38.157Z,1.90
2023-03-03T01:43:07.408Z,1.90
2023-03-03T01:46:06.026Z,1.90
2023-03-03T01:48:40.969Z,2.00
2023-03-03T01:51:16.992Z,1.90
2023-03-03T01:53:49.082Z,1.90
2023-03-03T01:56:17.884Z,1.90
2023-03-03T01:58:49.950Z,1.90
2023-03-03T02:01:22.939Z,1.90
2023-03-03T02:03:53.695Z,1.90
2023-03-03T02:06:26.335Z,1.90
2023-03-03T02:08:59.259Z,1.90
2023-03-03T02:11:29.675Z,1.90
2023-03-03T02:13:58.174Z,1.90
2023-03-03T02:16:27.310Z,1.90
2023-03-03T02:18:57.336Z,1.90
2023-03-03T02:21:27.665Z,1.90
2023-03-03T02:24:04.346Z,1.90
2023-03-03T02:26:40.609Z,1.90
2023-03-03T02:29:10.960Z,1.90
2023-03-03T02:31:41.284Z,1.90
2023-03-03T02:34:09.873Z,1.90
2023-03-03T02:36:40.537Z,1.90
2023-03-03T02:39:13.625Z,1.90
2023-03-03T02:41:47.795Z,1.80
2023-03-03T02:44:18.704Z,1.80
2023-03-03T02:46:49.258Z,1.80
2023-03-03T02:49:20.818Z,1.80
2023-03-03T02:51:49.687Z,1.80
2023-03-03T02:54:22.465Z,1.70
2023-03-03T02:56:52.562Z,1.70
2023-03-03T02:59:22.563Z,1.70
2023-03-03T03:01:53.770Z,1.90
2023-03-03T03:04:24.953Z,1.70
2023-03-03T03:06:55.850Z,1.70
2023-03-03T03:09:28.235Z,1.70
2023-03-03T03:11:59.538Z,1.70
2023-03-03T03:14:28.331Z,1.70
2023-03-03T03:16:58.065Z,1.70
2023-03-03T03:19:26.562Z,1.60
2023-03-03T03:21:55.184Z,1.60
2023-03-03T03:24:23.757Z,1.50
2023-03-03T03:27:01.035Z,1.50
2023-03-03T03:29:30.374Z,1.40
2023-03-03T03:31:59.075Z,1.40
2023-03-03T03:34:27.882Z,1.40
2023-03-03T03:36:57.786Z,1.40
2023-03-03T03:39:28.490Z,1.40
2023-03-03T03:41:58.032Z,1.40
2023-03-03T03:44:28.166Z,1.50
2023-03-03T03:46:56.953Z,1.50
2023-03-03T03:49:26.270Z,1.50
2023-03-03T03:51:57.641Z,1.50
2023-03-03T03:54:29.546Z,1.60
2023-03-03T03:56:58.289Z,1.50
2023-03-03T03:59:28.689Z,1.60
2023-03-03T04:01:57.587Z,1.60
2023-03-03T04:04:27.649Z,1.60
2023-03-03T04:06:56.248Z,1.60
2023-03-03T04:09:24.869Z,1.60
2023-03-03T04:11:53.488Z,1.60
2023-03-03T04:14:22.018Z,1.60
2023-03-03T04:16:51.962Z,1.70
2023-03-03T04:19:20.753Z,1.70
2023-03-03T04:21:52.782Z,1.70
2023-03-03T04:24:21.420Z,1.70
2023-03-03T04:26:52.341Z,1.70
2023-03-03T04:29:20.918Z,1.70
2023-03-03T04:31:51.567Z,1.70
2023-03-03T04:34:21.015Z,1.70
2023-03-03T04:36:50.102Z,1.70
2023-03-03T04:39:19.401Z,1.70
2023-03-03T04:41:48.603Z,1.70
2023-03-03T04:44:17.460Z,1.70
2023-03-03T04:46:46.081Z,1.70
2023-03-03T04:49:16.343Z,1.70
2023-03-03T04:51:45.320Z,1.70
2023-03-03T04:54:14.288Z,1.70
2023-03-03T04:56:42.855Z,1.70
2023-03-03T04:59:11.369Z,1.70
2023-03-03T05:01:40.020Z,1.70
2023-03-03T05:04:09.110Z,1.70
2023-03-03T05:06:39.385Z,1.80
2023-03-03T05:09:07.976Z,1.80
2023-03-03T05:11:36.612Z,1.80
2023-03-03T05:14:05.320Z,1.80
2023-03-03T05:16:33.928Z,1.80
2023-03-03T05:19:02.389Z,1.80
2023-03-03T05:21:31.174Z,1.80
2023-03-03T05:24:01.068Z,1.90
2023-03-03T05:26:29.655Z,1.80
2023-03-03T05:28:58.118Z,1.90
2023-03-03T05:31:27.297Z,1.90
2023-03-03T05:33:55.958Z,1.90
2023-03-03T05:36:24.681Z,1.90
2023-03-03T05:38:53.579Z,1.90
2023-03-03T05:41:23.548Z,2.00
2023-03-03T05:43:52.078Z,2.00
2023-03-03T05:46:20.674Z,2.00
2023-03-03T05:48:49.190Z,2.00
2023-03-03T05:51:17.714Z,2.00
2023-03-03T05:53:46.270Z,2.10
2023-03-03T05:56:14.837Z,2.10
2023-03-03T05:58:44.692Z,2.10
2023-03-03T06:01:13.215Z,2.10
2023-03-03T06:03:41.688Z,2.10
2023-03-03T06:06:10.193Z,2.10
2023-03-03T06:08:38.852Z,2.10
2023-03-03T06:11:07.307Z,2.10
2023-03-03T06:13:36.310Z,2.20
2023-03-03T06:16:06.867Z,2.20
2023-03-03T06:18:35.426Z,2.20
2023-03-03T06:21:04.102Z,2.20
2023-03-03T06:23:32.754Z,2.20
2023-03-03T06:26:01.359Z,2.20
2023-03-03T06:28:29.886Z,2.20
2023-03-03T06:30:58.465Z,2.20
2023-03-03T06:33:28.309Z,2.20
2023-03-03T06:35:57.019Z,2.20
2023-03-03T06:38:26.014Z,2.30
2023-03-03T06:40:54.571Z,2.30
2023-03-03T06:43:23.054Z,2.40
2023-03-03T06:45:51.669Z,2.30
2023-03-03T06:48:20.198Z,2.30
2023-03-03T06:50:50.006Z,2.30
2023-03-03T06:53:19.696Z,2.40
2023-03-03T06:55:48.347Z,2.40
2023-03-03T06:58:18.555Z,2.40
2023-03-03T07:00:54.375Z,2.50
2023-03-03T07:03:25.190Z,2.50
2023-03-03T07:05:55.148Z,2.50
2023-03-03T07:08:25.442Z,2.60
2023-03-03T07:10:54.952Z,2.60
2023-03-03T07:13:26.464Z,2.60
2023-03-03T07:15:57.013Z,2.70
2023-03-03T07:18:40.747Z,2.70
2023-03-03T07:21:22.744Z,2.70
2023-03-03T07:23:53.046Z,2.70
2023-03-03T07:26:24.948Z,2.80
2023-03-03T07:28:56.094Z,2.80
2023-03-03T07:31:34.841Z,2.80
2023-03-03T07:34:16.232Z,2.80
2023-03-03T07:36:46.540Z,3.00
2023-03-03T07:39:39.840Z,2.90
2023-03-03T07:42:22.344Z,2.90
2023-03-03T07:44:59.166Z,3.00
2023-03-03T07:47:29.068Z,3.00
2023-03-03T07:50:01.296Z,3.10
2023-03-03T07:52:40.314Z,3.10
2023-03-03T07:55:30.748Z,3.10
2023-03-03T07:58:16.598Z,3.10
2023-03-03T08:01:24.022Z,3.20
2023-03-03T08:03:53.321Z,3.20
2023-03-03T08:06:45.326Z,3.30
2023-03-03T08:09:38.480Z,3.40
2023-03-03T08:12:28.812Z,3.40
2023-03-03T08:14:59.257Z,3.40
2023-03-03T08:17:36.717Z,3.50
2023-03-03T08:20:25.234Z,3.50
2023-03-03T08:22:53.743Z,3.60
2023-03-03T08:25:23.633Z,3.70
2023-03-03T08:27:52.107Z,3.70
2023-03-03T08:30:20.737Z,3.80
2023-03-03T08:32:49.302Z,3.90
2023-03-03T08:35:17.897Z,3.90
2023-03-03T08:37:46.331Z,3.90
2023-03-03T08:40:14.975Z,4.00
2023-03-03T08:42:44.791Z,4.10
2023-03-03T08:45:13.262Z,4.10
2023-03-03T08:47:43.035Z,4.20
2023-03-03T08:50:12.057Z,4.30
2023-03-03T08:52:40.517Z,4.30
2023-03-03T08:55:09.426Z,4.40
2023-03-03T08:57:39.067Z,4.50
2023-03-03T09:00:11.351Z,4.50
2023-03-03T09:02:39.857Z,4.60
2023-03-03T09:05:09.807Z,4.70
2023-03-03T09:07:38.573Z,4.80
2023-03-03T09:10:08.401Z,5.10
2023-03-03T09:12:39.923Z,5.00
2023-03-03T09:15:25.692Z,5.10
2023-03-03T09:17:54.979Z,5.20
2023-03-03T09:20:34.909Z,5.20
2023-03-03T09:23:34.728Z,5.30
2023-03-03T09:26:28.048Z,5.40
2023-03-03T09:29:02.098Z,5.60
2023-03-03T09:31:40.197Z,5.70
2023-03-03T09:34:19.206Z,5.70
2023-03-03T09:36:49.368Z,5.80
2023-03-03T09:39:19.984Z,5.90
2023-03-03T09:42:03.645Z,6.00
2023-03-03T09:44:49.694Z,6.10
2023-03-03T09:47:36.256Z,6.10
2023-03-03T09:50:18.430Z,6.20
2023-03-03T09:52:56.616Z,6.20
2023-03-03T09:55:39.884Z,6.30
2023-03-03T09:58:36.176Z,6.30
2023-03-03T10:01:17.738Z,6.30
2023-03-03T10:04:05.415Z,6.40
2023-03-03T10:06:38.946Z,6.30
2023-03-03T10:09:37.677Z,6.30
2023-03-03T10:12:16.340Z,6.20
2023-03-03T10:15:11.836Z,6.30
2023-03-03T10:17:50.744Z,6.30
2023-03-03T10:20:49.137Z,6.50
2023-03-03T10:23:30.525Z,6.60
2023-03-03T10:26:09.463Z,6.70
2023-03-03T10:29:09.376Z,6.80
2023-03-03T10:31:53.043Z,6.90
2023-03-03T10:34:49.374Z,6.90
2023-03-03T10:37:24.858Z,6.90
2023-03-03T10:40:10.757Z,7.10
2023-03-03T10:43:04.551Z,7.20
2023-03-03T10:46:04.002Z,7.40
2023-03-03T10:48:50.938Z,7.60
2023-03-03T10:51:29.193Z,7.60
2023-03-03T10:54:14.205Z,7.70
2023-03-03T10:56:53.595Z,7.70
2023-03-03T10:59:37.297Z,7.80
2023-03-03T11:02:13.637Z,7.70
2023-03-03T11:05:00.237Z,7.70
2023-03-03T11:07:36.208Z,7.50
2023-03-03T11:10:19.742Z,7.40
2023-03-03T11:12:58.694Z,7.30
2023-03-03T11:15:46.096Z,7.20
2023-03-03T11:18:26.050Z,7.10
2023-03-03T11:21:03.844Z,7.00
2023-03-03T11:23:52.749Z,7.00
2023-03-03T11:26:35.389Z,6.90
2023-03-03T11:29:21.604Z,6.90
2023-03-03T11:31:56.657Z,6.80
2023-03-03T11:34:47.820Z,6.80
2023-03-03T11:37:20.705Z,6.80
2023-03-03T11:39:53.129Z,6.80
2023-03-03T11:42:28.894Z,6.80
2023-03-03T11:45:02.458Z,6.90
2023-03-03T11:47:35.921Z,7.10
2023-03-03T11:50:10.210Z,7.20
2023-03-03T11:52:44.604Z,7.40
2023-03-03T11:55:16.452Z,7.70
2023-03-03T11:57:50.810Z,7.70
2023-03-03T12:00:27.553Z,7.90
2023-03-03T12:03:06.444Z,8.00
2023-03-03T12:05:51.240Z,8.00
2023-03-03T12:08:39.161Z,8.10
2023-03-03T12:11:11.848Z,8.20
2023-03-03T12:13:53.251Z,8.40
2023-03-03T12:16:35.089Z,8.60
2023-03-03T12:19:19.477Z,8.70
2023-03-03T12:22:06.694Z,8.70
2023-03-03T12:25:01.062Z,8.60
2023-03-03T12:27:33.790Z,8.50
2023-03-03T12:30:15.886Z,8.50
2023-03-03T12:33:04.249Z,8.30
2023-03-03T12:35:39.645Z,8.30
2023-03-03T12:38:18.617Z,8.20
2023-03-03T12:40:54.952Z,8.30
2023-03-03T12:43:37.417Z,8.30
2023-03-03T12:46:18.513Z,8.40
2023-03-03T12:48:48.534Z,8.50
2023-03-03T12:51:30.503Z,8.50
2023-03-03T12:54:37.779Z,8.60
2023-03-03T12:57:14.789Z,8.80
2023-03-03T12:59:51.749Z,8.90
2023-03-03T13:02:39.734Z,8.80
2023-03-03T13:05:20.133Z,8.70
2023-03-03T13:07:57.817Z,8.60
2023-03-03T13:10:33.725Z,8.50
2023-03-03T13:13:10.006Z,8.50
2023-03-03T13:15:54.782Z,8.60
2023-03-03T13:18:35.542Z,8.80
2023-03-03T13:21:10.980Z,9.00
2023-03-03T13:23:49.937Z,9.20
2023-03-03T13:26:23.677Z,9.20
2023-03-03T13:29:01.118Z,9.20
2023-03-03T13:31:34.825Z,9.20
2023-03-03T13:34:04.789Z,9.20
2023-03-03T13:36:39.894Z,9.30
2023-03-03T13:39:19.864Z,9.30
2023-03-03T13:41:53.126Z,9.30
2023-03-03T13:44:26.521Z,9.30
2023-03-03T13:47:07.018Z,9.30
2023-03-03T13:49:56.544Z,9.30
2023-03-03T13:52:27.933Z,9.30
2023-03-03T13:55:09.657Z,9.20
2023-03-03T13:57:46.637Z,9.20
2023-03-03T14:00:24.030Z,9.20
2023-03-03T14:03:09.794Z,9.20
2023-03-03T14:05:45.151Z,9.10
2023-03-03T14:08:21.445Z,9.00
2023-03-03T14:11:00.374Z,8.90
2023-03-03T14:13:34.145Z,8.90
2023-03-03T14:16:06.697Z,8.80
2023-03-03T14:18:40.725Z,8.70
2023-03-03T14:21:15.612Z,8.60
2023-03-03T14:23:52.552Z,8.60
2023-03-03T14:26:21.127Z,8.50
2023-03-03T14:28:52.338Z,8.60
2023-03-03T14:31:24.198Z,8.50
2023-03-03T14:34:01.470Z,8.50
2023-03-03T14:36:34.620Z,8.40
2023-03-03T14:39:03.101Z,8.40
2023-03-03T14:41:40.610Z,8.40
2023-03-03T14:44:28.662Z,8.40
2023-03-03T14:47:23.618Z,8.40
2023-03-03T14:49:52.880Z,8.50
2023-03-03T14:52:26.210Z,8.50
2023-03-03T14:54:56.274Z,8.50
2023-03-03T14:57:46.306Z,8.50
2023-03-03T15:00:35.972Z,8.50
2023-03-03T15:03:22.222Z,8.50
2023-03-03T15:05:51.935Z,8.50
2023-03-03T15:08:32.848Z,8.60
2023-03-03T15:11:28.002Z,8.70
2023-03-03T15:14:12.988Z,8.70
2023-03-03T15:16:44.843Z,8.70
2023-03-03T15:19:42.584Z,8.70
2023-03-03T15:22:23.445Z,8.70
2023-03-03T15:25:01.877Z,8.70
2023-03-03T15:27:36.849Z,8.70
2023-03-03T15:30:21.860Z,8.60
2023-03-03T15:32:56.242Z,8.60
2023-03-03T15:35:41.200Z,8.60
2023-03-03T15:38:19.744Z,8.60
2023-03-03T15:40:53.267Z,8.70
2023-03-03T15:43:28.078Z,8.50
2023-03-03T15:46:07.993Z,8.50
2023-03-03T15:48:50.238Z,8.40
2023-03-03T15:51:32.293Z,8.40
2023-03-03T15:54:18.545Z,8.40
2023-03-03T15:56:53.359Z,8.30
2023-03-03T16:00:00.269Z,8.20
2023-03-03T16:02:42.637Z,8.10
2023-03-03T16:05:21.789Z,8.00
2023-03-03T16:08:02.936Z,7.80
2023-03-03T16:10:40.346Z,7.60
2023-03-03T16:13:31.373Z,7.70
2023-03-03T16:16:08.866Z,7.40
2023-03-03T16:18:49.382Z,7.30
2023-03-03T16:21:28.991Z,7.30
2023-03-03T16:24:00.417Z,7.40
2023-03-03T16:26:37.682Z,7.30
2023-03-03T16:29:28.150Z,7.30
2023-03-03T16:32:02.024Z,7.40
2023-03-03T16:34:37.971Z,7.40
2023-03-03T16:37:19.268Z,7.40
2023-03-03T16:39:56.602Z,7.40
2023-03-03T16:42:28.755Z,7.30
2023-03-03T16:45:08.106Z,7.30
2023-03-03T16:47:50.513Z,7.30
2023-03-03T16:50:27.807Z,7.30
2023-03-03T16:53:06.668Z,7.20
2023-03-03T16:55:43.473Z,7.20
2023-03-03T16:58:27.272Z,7.20
2023-03-03T17:01:08.632Z,7.10
2023-03-03T17:03:55.662Z,7.10
2023-03-03T17:06:32.209Z,7.00
2023-03-03T17:09:33.026Z,7.00
2023-03-03T17:12:21.831Z,7.00
2023-03-03T17:15:03.215Z,7.00
2023-03-03T17:17:41.535Z,6.90
2023-03-03T17:20:21.822Z,6.90
2023-03-03T17:23:01.972Z,6.80
2023-03-03T17:25:38.338Z,6.80
2023-03-03T17:28:22.867Z,6.90
2023-03-03T17:31:01.027Z,6.80
2023-03-03T17:33:44.153Z,6.90
2023-03-03T17:36:22.633Z,6.80
2023-03-03T17:39:03.712Z,6.80
2023-03-03T17:41:39.891Z,6.80
2023-03-03T17:44:16.355Z,6.70
2023-03-03T17:46:48.416Z,6.70
2023-03-03T17:49:47.846Z,6.70
2023-03-03T17:52:48.730Z,6.70
2023-03-03T17:55:55.320Z,6.90
2023-03-03T17:58:48.668Z,6.70
2023-03-03T18:01:26.921Z,6.70
2023-03-03T18:04:29.418Z,6.80
2023-03-03T18:07:41.789Z,6.70
2023-03-03T18:10:36.555Z,6.70
2023-03-03T18:13:14.313Z,6.70
2023-03-03T18:16:10.717Z,6.70
2023-03-03T18:19:03.849Z,6.70
2023-03-03T18:21:39.642Z,6.70
2023-03-03T18:24:29.488Z,6.70
2023-03-03T18:27:14.111Z,6.70
2023-03-03T18:30:14.757Z,6.70
2023-03-03T18:32:47.421Z,6.70
2023-03-03T18:35:25.332Z,6.60
2023-03-03T18:37:54.360Z,6.70
2023-03-03T18:40:35.798Z,6.60
2023-03-03T18:43:37.735Z,6.60
2023-03-03T18:46:06.746Z,6.60
2023-03-03T18:48:50.513Z,6.60
2023-03-03T18:51:49.181Z,6.70
2023-03-03T18:54:36.718Z,6.60
2023-03-03T18:57:18.944Z,6.60
2023-03-03T18:59:55.948Z,6.70
2023-03-03T19:02:38.860Z,6.50
2023-03-03T19:05:19.649Z,6.50
2023-03-03T19:07:54.172Z,6.50
2023-03-03T19:10:55.302Z,6.60
2023-03-03T19:13:46.814Z,6.50
2023-03-03T19:16:31.585Z,6.50
2023-03-03T19:19:02.260Z,6.50
2023-03-03T19:21:33.930Z,6.50
2023-03-03T19:24:04.730Z,6.50
2023-03-03T19:26:46.019Z,6.50
2023-03-03T19:29:30.634Z,6.50
2023-03-03T19:32:14.965Z,6.50
2023-03-03T19:34:50.036Z,6.50
2023-03-03T19:37:36.675Z,6.50
2023-03-03T19:40:17.526Z,6.50
2023-03-03T19:42:56.479Z,6.50
2023-03-03T19:45:37.033Z,6.40
2023-03-03T19:48:13.413Z,6.60
2023-03-03T19:50:50.150Z,6.50
2023-03-03T19:53:29.228Z,6.50
2023-03-03T19:56:19.909Z,6.50
2023-03-03T19:58:59.584Z,6.50
2023-03-03T20:01:39.129Z,6.50
2023-03-03T20:04:20.173Z,6.50
2023-03-03T20:06:56.378Z,6.50
2023-03-03T20:09:36.540Z,6.50
2023-03-03T20:12:40.771Z,6.50
2023-03-03T20:15:15.909Z,6.50
2023-03-03T20:18:16.378Z,6.50
2023-03-03T20:20:57.904Z,6.50
2023-03-03T20:23:32.966Z,6.50
2023-03-03T20:26:07.832Z,6.50
2023-03-03T20:29:08.822Z,6.50
2023-03-03T20:31:46.049Z,6.50
2023-03-03T20:34:24.090Z,6.50
2023-03-03T20:37:02.557Z,6.50
2023-03-03T20:39:44.698Z,6.50
2023-03-03T20:42:27.086Z,6.50
2023-03-03T20:45:11.854Z,6.50
2023-03-03T20:47:51.672Z,6.50
2023-03-03T20:50:30.421Z,6.50
2023-03-03T20:53:14.954Z,6.50
2023-03-03T20:55:51.364Z,6.50
2023-03-03T20:58:26.433Z,6.50
2023-03-03T21:01:04.293Z,6.50
2023-03-03T21:03:35.281Z,6.50
2023-03-03T21:06:09.270Z,6.50
2023-03-03T21:08:49.566Z,6.50
2023-03-03T21:11:21.430Z,6.50
2023-03-03T21:13:54.105Z,6.50
2023-03-03T21:16:35.833Z,6.50
2023-03-03T21:19:06.418Z,6.50
2023-03-03T21:21:38.756Z,6.50
2023-03-03T21:24:08.895Z,6.50
2023-03-03T21:26:48.729Z,6.50
2023-03-03T21:29:26.259Z,6.60
2023-03-03T21:31:56.872Z,6.50
2023-03-03T21:34:28.515Z,6.50
2023-03-03T21:36:59.726Z,6.40
2023-03-03T21:39:33.132Z,6.40
2023-03-03T21:42:03.217Z,6.40
2023-03-03T21:44:35.184Z,6.40
2023-03-03T21:47:04.854Z,6.40
2023-03-03T21:49:33.514Z,6.40
2023-03-03T21:52:03.918Z,6.40
2023-03-03T21:54:32.557Z,6.40
2023-03-03T21:57:01.179Z,6.50
2023-03-03T21:59:29.645Z,6.50
2023-03-03T22:01:58.161Z,6.50
2023-03-03T22:04:27.120Z,6.40
2023-03-03T22:06:55.652Z,6.40
2023-03-03T22:09:25.949Z,6.40
2023-03-03T22:11:54.447Z,6.40
2023-03-03T22:14:22.998Z,6.40
2023-03-03T22:16:51.589Z,6.50
2023-03-03T22:19:20.154Z,6.50
2023-03-03T22:21:49.650Z,6.50
2023-03-03T22:24:19.019Z,6.50
2023-03-03T22:26:49.026Z,6.50
2023-03-03T22:29:22.648Z,6.50
2023-03-03T22:31:51.271Z,6.50
2023-03-03T22:34:20.153Z,6.50
2023-03-03T22:36:48.653Z,6.50
2023-03-03T22:39:17.134Z,6.70
2023-03-03T22:41:45.758Z,6.50
2023-03-03T22:44:15.682Z,6.50
2023-03-03T22:46:44.301Z,6.50
2023-03-03T22:49:12.855Z,6.50
2023-03-03T22:51:41.363Z,6.60
2023-03-03T22:54:09.954Z,6.50
2023-03-03T22:56:38.550Z,6.60
2023-03-03T22:59:07.217Z,6.60
2023-03-03T23:01:37.144Z,6.60
2023-03-03T23:04:06.061Z,6.60
2023-03-03T23:06:34.801Z,6.60
2023-03-03T23:09:03.694Z,6.60
2023-03-03T23:11:32.134Z,6.60
2023-03-03T23:14:00.734Z,6.60
2023-03-03T23:16:29.311Z,6.60
2023-03-03T23:18:59.319Z,6.60
2023-03-03T23:21:27.940Z,6.60
2023-03-03T23:23:56.366Z,6.60
2023-03-03T23:26:24.897Z,6.60
2023-03-03T23:28:53.448Z,6.60
2023-03-03T23:31:22.027Z,6.60
2023-03-03T23:33:50.485Z,6.60
2023-03-03T23:36:21.141Z,6.60
2023-03-03T23:38:49.695Z,6.70
2023-03-03T23:41:18.199Z,6.60
2023-03-03T23:43:46.730Z,6.60
2023-03-03T23:46:15.257Z,6.60
2023-03-03T23:48:43.793Z,6.50
2023-03-03T23:51:12.246Z,6.50
2023-03-03T23:53:42.202Z,6.50
2023-03-03T23:56:10.719Z,6.50
2023-03-03T23:58:39.170Z,6.50
